sensor_id;sensor_type;location;lat;lon;timestamp;temperature;humidity
44775;DHT22;31340;51.402;0.016;2023-05-10T00:00:57;13.80;99.90
44775;DHT22;31340;51.402;0.016;2023-05-10T00:03:24;13.70;99.90
44775;DHT22;31340;51.402;0.016;2023-05-10T00:05:52;13.70;99.90
44775;DHT22;31340;51.402;0.016;2023-05-10T00:08:19;13.70;99.90
44775;DHT22;31340;51.402;0.016;2023-05-10T00:10:47;13.60;99.90
44775;DHT22;31340;51.402;0.016;2023-05-10T00:13:15;13.60;99.90
44775;DHT22;31340;51.402;0.016;2023-05-10T00:15:43;13.60;99.90
44775;DHT22;31340;51.402;0.016;2023-05-10T00:18:10;13.60;99.90
44775;DHT22;31340;51.402;0.016;2023-05-10T00:20:38;13.50;99.90
44775;DHT22;31340;51.402;0.016;2023-05-10T00:23:05;13.50;99.90
44775;DHT22;31340;51.402;0.016;2023-05-10T00:25:33;13.50;99.90
44775;DHT22;31340;51.402;0.016;2023-05-10T00:28:00;13.50;99.90
44775;DHT22;31340;51.402;0.016;2023-05-10T00:30:29;13.50;99.90
44775;DHT22;31340;51.402;0.016;2023-05-10T00:32:56;13.40;99.90
44775;DHT22;31340;51.402;0.016;2023-05-10T00:35:24;13.40;99.90
44775;DHT22;31340;51.402;0.016;2023-05-10T00:37:52;13.50;99.90
44775;DHT22;31340;51.402;0.016;2023-05-10T00:40:20;13.40;99.90
44775;DHT22;31340;51.402;0.016;2023-05-10T00:42:53;13.40;99.90
44775;DHT22;31340;51.402;0.016;2023-05-10T00:45:21;13.40;99.90
44775;DHT22;31340;51.402;0.016;2023-05-10T00:47:48;13.40;99.90
44775;DHT22;31340;51.402;0.016;2023-05-10T00:50:17;13.40;99.90
44775;DHT22;31340;51.402;0.016;2023-05-10T00:52:45;13.40;99.90
44775;DHT22;31340;51.402;0.016;2023-05-10T00:55:13;13.40;99.90
44775;DHT22;31340;51.402;0.016;2023-05-10T00:57:41;13.40;99.90
44775;DHT22;31340;51.402;0.016;2023-05-10T01:00:10;13.40;99.90
44775;DHT22;31340;51.402;0.016;2023-05-10T01:02:39;13.30;99.90
44775;DHT22;31340;51.402;0.016;2023-05-10T01:05:07;13.40;99.90
44775;DHT22;31340;51.402;0.016;2023-05-10T01:07:35;13.30;99.90
44775;DHT22;31340;51.402;0.016;2023-05-10T01:10:04;13.40;99.90
44775;DHT22;31340;51.402;0.016;2023-05-10T01:12:34;13.40;99.90
44775;DHT22;31340;51.402;0.016;2023-05-10T01:15:03;13.40;99.90
44775;DHT22;31340;51.402;0.016;2023-05-10T01:17:33;13.40;99.90
44775;DHT22;31340;51.402;0.016;2023-05-10T01:20:01;13.40;99.90
44775;DHT22;31340;51.402;0.016;2023-05-10T01:28:46;13.40;99.90
44775;DHT22;31340;51.402;0.016;2023-05-10T01:31:30;13.40;99.90
44775;DHT22;31340;51.402;0.016;2023-05-10T01:34:08;13.40;99.90
44775;DHT22;31340;51.402;0.016;2023-05-10T01:37:07;13.40;99.90
44775;DHT22;31340;51.402;0.016;2023-05-10T01:39:45;13.40;99.90
44775;DHT22;31340;51.402;0.016;2023-05-10T01:42:20;13.40;99.90
44775;DHT22;31340;51.402;0.016;2023-05-10T01:45:11;13.50;99.90
44775;DHT22;31340;51.402;0.016;2023-05-10T01:47:47;13.50;99.90
44775;DHT22;31340;51.402;0.016;2023-05-10T01:50:22;13.50;99.90
44775;DHT22;31340;51.402;0.016;2023-05-10T01:52:55;13.50;99.90
44775;DHT22;31340;51.402;0.016;2023-05-10T01:55:26;13.50;99.90
44775;DHT22;31340;51.402;0.016;2023-05-10T01:58:06;13.50;99.90
44775;DHT22;31340;51.402;0.016;2023-05-10T02:00:35;13.50;99.90
44775;DHT22;31340;51.402;0.016;2023-05-10T02:03:06;13.50;99.90
44775;DHT22;31340;51.402;0.016;2023-05-10T02:05:35;13.60;99.90
44775;DHT22;31340;51.402;0.016;2023-05-10T02:08:06;13.60;99.90
44775;DHT22;31340;51.402;0.016;2023-05-10T02:10:37;13.60;99.90
44775;DHT22;31340;51.402;0.016;2023-05-10T02:13:08;13.60;99.90
44775;DHT22;31340;51.402;0.016;2023-05-10T02:15:37;13.60;99.90
44775;DHT22;31340;51.402;0.016;2023-05-10T02:18:06;13.60;99.90
44775;DHT22;31340;51.402;0.016;2023-05-10T02:20:36;13.60;99.90
44775;DHT22;31340;51.402;0.016;2023-05-10T02:23:05;13.70;99.90
44775;DHT22;31340;51.402;0.016;2023-05-10T02:25:34;13.70;99.90
44775;DHT22;31340;51.402;0.016;2023-05-10T02:28:05;13.70;99.90
44775;DHT22;31340;51.402;0.016;2023-05-10T02:30:36;13.70;99.90
44775;DHT22;31340;51.402;0.016;2023-05-10T02:33:05;13.70;99.90
44775;DHT22;31340;51.402;0.016;2023-05-10T02:35:34;13.70;99.90
44775;DHT22;31340;51.402;0.016;2023-05-10T02:38:02;13.70;99.90
44775;DHT22;31340;51.402;0.016;2023-05-10T02:40:32;13.70;99.90
44775;DHT22;31340;51.402;0.016;2023-05-10T02:43:02;13.70;99.90
44775;DHT22;31340;51.402;0.016;2023-05-10T02:45:32;13.70;99.90
44775;DHT22;31340;51.402;0.016;2023-05-10T02:48:02;13.70;99.90
44775;DHT22;31340;51.402;0.016;2023-05-10T02:50:32;13.70;99.90
44775;DHT22;31340;51.402;0.016;2023-05-10T02:53:01;13.70;99.90
44775;DHT22;31340;51.402;0.016;2023-05-10T02:55:37;13.70;99.90
44775;DHT22;31340;51.402;0.016;2023-05-10T02:58:06;13.70;99.90
44775;DHT22;31340;51.402;0.016;2023-05-10T03:00:34;13.70;99.90
44775;DHT22;31340;51.402;0.016;2023-05-10T03:03:02;13.60;99.90
44775;DHT22;31340;51.402;0.016;2023-05-10T03:05:30;13.60;99.90
44775;DHT22;31340;51.402;0.016;2023-05-10T03:08:01;13.60;99.90
44775;DHT22;31340;51.402;0.016;2023-05-10T03:10:32;13.60;99.90
44775;DHT22;31340;51.402;0.016;2023-05-10T03:18:27;13.60;99.90
44775;DHT22;31340;51.402;0.016;2023-05-10T03:21:02;13.60;99.90
44775;DHT22;31340;51.402;0.016;2023-05-10T03:23:37;13.60;99.90
44775;DHT22;31340;51.402;0.016;2023-05-10T03:26:08;13.60;99.90
44775;DHT22;31340;51.402;0.016;2023-05-10T03:28:37;13.50;99.90
44775;DHT22;31340;51.402;0.016;2023-05-10T03:31:07;13.50;99.90
44775;DHT22;31340;51.402;0.016;2023-05-10T03:33:35;13.50;99.90
44775;DHT22;31340;51.402;0.016;2023-05-10T03:36:03;13.50;99.90
44775;DHT22;31340;51.402;0.016;2023-05-10T03:38:31;13.50;99.90
44775;DHT22;31340;51.402;0.016;2023-05-10T03:40:59;13.50;99.90
44775;DHT22;31340;51.402;0.016;2023-05-10T03:43:26;13.50;99.90
44775;DHT22;31340;51.402;0.016;2023-05-10T03:45:54;13.50;99.90
44775;DHT22;31340;51.402;0.016;2023-05-10T03:48:22;13.50;99.90
44775;DHT22;31340;51.402;0.016;2023-05-10T03:50:49;13.40;99.90
44775;DHT22;31340;51.402;0.016;2023-05-10T03:53:17;13.50;99.90
44775;DHT22;31340;51.402;0.016;2023-05-10T03:55:45;13.50;99.90
44775;DHT22;31340;51.402;0.016;2023-05-10T03:58:13;13.50;99.90
44775;DHT22;31340;51.402;0.016;2023-05-10T04:00:41;13.50;99.90
44775;DHT22;31340;51.402;0.016;2023-05-10T04:03:12;13.50;99.90
44775;DHT22;31340;51.402;0.016;2023-05-10T04:05:41;13.50;99.90
44775;DHT22;31340;51.402;0.016;2023-05-10T04:08:08;13.50;99.90
44775;DHT22;31340;51.402;0.016;2023-05-10T04:10:37;13.50;99.90
44775;DHT22;31340;51.402;0.016;2023-05-10T04:13:04;13.40;99.90
44775;DHT22;31340;51.402;0.016;2023-05-10T04:15:32;13.50;99.90
44775;DHT22;31340;51.402;0.016;2023-05-10T04:17:59;13.40;99.90
44775;DHT22;31340;51.402;0.016;2023-05-10T04:20:27;13.40;99.90
44775;DHT22;31340;51.402;0.016;2023-05-10T04:22:55;13.40;99.90
44775;DHT22;31340;51.402;0.016;2023-05-10T04:25:23;13.40;99.90
44775;DHT22;31340;51.402;0.016;2023-05-10T04:27:51;13.40;99.90
44775;DHT22;31340;51.402;0.016;2023-05-10T04:30:19;13.40;99.90
44775;DHT22;31340;51.402;0.016;2023-05-10T04:32:46;13.30;99.90
44775;DHT22;31340;51.402;0.016;2023-05-10T04:35:14;13.40;99.90
44775;DHT22;31340;51.402;0.016;2023-05-10T04:37:42;13.30;99.90
44775;DHT22;31340;51.402;0.016;2023-05-10T04:40:10;13.30;99.90
44775;DHT22;31340;51.402;0.016;2023-05-10T04:42:40;13.30;99.90
44775;DHT22;31340;51.402;0.016;2023-05-10T04:45:09;13.30;99.90
44775;DHT22;31340;51.402;0.016;2023-05-10T04:47:37;13.30;99.90
44775;DHT22;31340;51.402;0.016;2023-05-10T04:50:05;13.30;99.90
44775;DHT22;31340;51.402;0.016;2023-05-10T04:52:33;13.30;99.90
44775;DHT22;31340;51.402;0.016;2023-05-10T04:55:01;13.30;99.90
44775;DHT22;31340;51.402;0.016;2023-05-10T04:57:28;13.20;99.90
44775;DHT22;31340;51.402;0.016;2023-05-10T04:59:56;13.30;99.90
44775;DHT22;31340;51.402;0.016;2023-05-10T05:02:23;13.20;99.90
44775;DHT22;31340;51.402;0.016;2023-05-10T05:04:51;13.20;99.90
44775;DHT22;31340;51.402;0.016;2023-05-10T05:07:19;13.20;99.90
44775;DHT22;31340;51.402;0.016;2023-05-10T05:09:47;13.20;99.90
44775;DHT22;31340;51.402;0.016;2023-05-10T05:12:15;13.20;99.90
44775;DHT22;31340;51.402;0.016;2023-05-10T05:14:43;13.10;99.90
44775;DHT22;31340;51.402;0.016;2023-05-10T05:17:11;13.10;99.90
44775;DHT22;31340;51.402;0.016;2023-05-10T05:19:39;13.10;99.90
44775;DHT22;31340;51.402;0.016;2023-05-10T05:22:07;13.10;99.90
44775;DHT22;31340;51.402;0.016;2023-05-10T05:24:36;13.10;99.90
44775;DHT22;31340;51.402;0.016;2023-05-10T05:27:06;13.10;99.90
44775;DHT22;31340;51.402;0.016;2023-05-10T05:29:34;13.00;99.90
44775;DHT22;31340;51.402;0.016;2023-05-10T05:32:02;13.00;99.90
44775;DHT22;31340;51.402;0.016;2023-05-10T05:34:29;13.00;99.90
44775;DHT22;31340;51.402;0.016;2023-05-10T05:36:57;12.90;99.90
44775;DHT22;31340;51.402;0.016;2023-05-10T05:39:25;13.00;99.90
44775;DHT22;31340;51.402;0.016;2023-05-10T05:41:52;12.90;99.90
44775;DHT22;31340;51.402;0.016;2023-05-10T05:44:20;13.00;99.90
44775;DHT22;31340;51.402;0.016;2023-05-10T05:46:48;12.90;99.90
44775;DHT22;31340;51.402;0.016;2023-05-10T05:49:15;13.00;99.90
44775;DHT22;31340;51.402;0.016;2023-05-10T05:51:44;13.00;99.90
44775;DHT22;31340;51.402;0.016;2023-05-10T05:54:12;13.00;99.90
44775;DHT22;31340;51.402;0.016;2023-05-10T05:56:40;13.00;99.90
44775;DHT22;31340;51.402;0.016;2023-05-10T05:59:07;13.00;99.90
44775;DHT22;31340;51.402;0.016;2023-05-10T06:01:35;13.10;99.90
44775;DHT22;31340;51.402;0.016;2023-05-10T06:04:03;13.10;99.90
44775;DHT22;31340;51.402;0.016;2023-05-10T06:06:31;13.10;99.90
44775;DHT22;31340;51.402;0.016;2023-05-10T06:08:59;13.10;99.90
44775;DHT22;31340;51.402;0.016;2023-05-10T06:11:26;13.10;99.90
44775;DHT22;31340;51.402;0.016;2023-05-10T06:13:54;13.10;99.90
44775;DHT22;31340;51.402;0.016;2023-05-10T06:16:21;13.10;99.90
44775;DHT22;31340;51.402;0.016;2023-05-10T06:18:49;13.10;99.90
44775;DHT22;31340;51.402;0.016;2023-05-10T06:21:17;13.10;99.90
44775;DHT22;31340;51.402;0.016;2023-05-10T06:23:44;13.10;99.90
44775;DHT22;31340;51.402;0.016;2023-05-10T06:26:12;13.10;99.90
44775;DHT22;31340;51.402;0.016;2023-05-10T06:28:41;13.10;99.90
44775;DHT22;31340;51.402;0.016;2023-05-10T06:31:08;13.10;99.90
44775;DHT22;31340;51.402;0.016;2023-05-10T06:33:36;13.10;99.90
44775;DHT22;31340;51.402;0.016;2023-05-10T06:36:04;13.10;99.90
44775;DHT22;31340;51.402;0.016;2023-05-10T06:38:31;13.20;99.90
44775;DHT22;31340;51.402;0.016;2023-05-10T06:40:59;13.20;99.90
44775;DHT22;31340;51.402;0.016;2023-05-10T06:43:26;13.20;99.90
44775;DHT22;31340;51.402;0.016;2023-05-10T06:45:56;13.20;99.90
44775;DHT22;31340;51.402;0.016;2023-05-10T06:48:23;13.30;99.90
44775;DHT22;31340;51.402;0.016;2023-05-10T06:50:51;13.30;99.90
44775;DHT22;31340;51.402;0.016;2023-05-10T06:53:18;13.30;99.90
44775;DHT22;31340;51.402;0.016;2023-05-10T06:55:46;13.30;99.90
44775;DHT22;31340;51.402;0.016;2023-05-10T06:58:13;13.40;99.90
44775;DHT22;31340;51.402;0.016;2023-05-10T07:00:41;13.40;99.90
44775;DHT22;31340;51.402;0.016;2023-05-10T07:03:10;13.40;99.90
44775;DHT22;31340;51.402;0.016;2023-05-10T07:05:38;13.50;99.90
44775;DHT22;31340;51.402;0.016;2023-05-10T07:08:06;13.50;99.90
44775;DHT22;31340;51.402;0.016;2023-05-10T07:10:34;13.60;99.90
44775;DHT22;31340;51.402;0.016;2023-05-10T07:13:01;13.70;99.90
44775;DHT22;31340;51.402;0.016;2023-05-10T07:15:29;13.70;99.90
44775;DHT22;31340;51.402;0.016;2023-05-10T07:17:57;13.80;99.90
44775;DHT22;31340;51.402;0.016;2023-05-10T07:20:25;13.80;99.90
44775;DHT22;31340;51.402;0.016;2023-05-10T07:22:52;13.80;99.90
44775;DHT22;31340;51.402;0.016;2023-05-10T07:25:20;13.90;99.90
44775;DHT22;31340;51.402;0.016;2023-05-10T07:27:48;13.90;99.90
44775;DHT22;31340;51.402;0.016;2023-05-10T07:30:15;13.90;99.90
44775;DHT22;31340;51.402;0.016;2023-05-10T07:32:43;13.90;99.90
44775;DHT22;31340;51.402;0.016;2023-05-10T07:35:10;14.00;99.90
44775;DHT22;31340;51.402;0.016;2023-05-10T07:37:39;14.00;99.90
44775;DHT22;31340;51.402;0.016;2023-05-10T07:40:07;14.00;99.90
44775;DHT22;31340;51.402;0.016;2023-05-10T07:42:35;14.10;99.90
44775;DHT22;31340;51.402;0.016;2023-05-10T07:45:03;14.10;99.90
44775;DHT22;31340;51.402;0.016;2023-05-10T07:47:31;14.20;99.90
44775;DHT22;31340;51.402;0.016;2023-05-10T07:49:59;14.20;99.90
44775;DHT22;31340;51.402;0.016;2023-05-10T07:52:26;14.30;99.90
44775;DHT22;31340;51.402;0.016;2023-05-10T07:54:54;14.20;99.90
44775;DHT22;31340;51.402;0.016;2023-05-10T07:57:22;14.40;99.90
44775;DHT22;31340;51.402;0.016;2023-05-10T07:59:49;14.60;99.90
44775;DHT22;31340;51.402;0.016;2023-05-10T08:02:17;14.50;99.90
44775;DHT22;31340;51.402;0.016;2023-05-10T08:04:45;14.50;99.90
44775;DHT22;31340;51.402;0.016;2023-05-10T08:07:13;14.60;99.90
44775;DHT22;31340;51.402;0.016;2023-05-10T08:09:40;14.60;99.90
44775;DHT22;31340;51.402;0.016;2023-05-10T08:12:08;14.60;99.90
44775;DHT22;31340;51.402;0.016;2023-05-10T08:14:35;14.70;99.90
44775;DHT22;31340;51.402;0.016;2023-05-10T08:17:05;14.70;99.90
44775;DHT22;31340;51.402;0.016;2023-05-10T08:19:33;14.70;99.90
44775;DHT22;31340;51.402;0.016;2023-05-10T08:22:00;14.80;99.90
44775;DHT22;31340;51.402;0.016;2023-05-10T08:24:28;14.80;99.90
44775;DHT22;31340;51.402;0.016;2023-05-10T08:26:56;14.90;99.90
44775;DHT22;31340;51.402;0.016;2023-05-10T08:29:23;14.90;99.90
44775;DHT22;31340;51.402;0.016;2023-05-10T08:31:54;15.00;99.90
44775;DHT22;31340;51.402;0.016;2023-05-10T08:34:21;15.00;99.90
44775;DHT22;31340;51.402;0.016;2023-05-10T08:36:50;15.00;99.90
44775;DHT22;31340;51.402;0.016;2023-05-10T08:39:17;15.10;99.90
44775;DHT22;31340;51.402;0.016;2023-05-10T08:42:02;15.20;99.90
44775;DHT22;31340;51.402;0.016;2023-05-10T08:44:32;15.30;99.90
44775;DHT22;31340;51.402;0.016;2023-05-10T08:47:05;15.40;99.90
44775;DHT22;31340;51.402;0.016;2023-05-10T08:49:34;15.40;99.90
44775;DHT22;31340;51.402;0.016;2023-05-10T08:52:03;15.50;99.90
44775;DHT22;31340;51.402;0.016;2023-05-10T08:54:35;15.60;99.90
44775;DHT22;31340;51.402;0.016;2023-05-10T08:57:03;15.70;99.90
44775;DHT22;31340;51.402;0.016;2023-05-10T08:59:31;15.80;99.90
44775;DHT22;31340;51.402;0.016;2023-05-10T09:02:00;15.80;99.90
44775;DHT22;31340;51.402;0.016;2023-05-10T09:04:29;15.90;99.90
44775;DHT22;31340;51.402;0.016;2023-05-10T09:06:58;16.00;99.90
44775;DHT22;31340;51.402;0.016;2023-05-10T09:09:27;16.00;99.90
44775;DHT22;31340;51.402;0.016;2023-05-10T09:11:55;16.10;99.90
44775;DHT22;31340;51.402;0.016;2023-05-10T09:14:24;16.20;99.90
44775;DHT22;31340;51.402;0.016;2023-05-10T09:16:53;16.20;99.90
44775;DHT22;31340;51.402;0.016;2023-05-10T09:19:22;16.30;99.90
44775;DHT22;31340;51.402;0.016;2023-05-10T09:21:50;16.40;99.90
44775;DHT22;31340;51.402;0.016;2023-05-10T09:24:17;16.40;99.90
44775;DHT22;31340;51.402;0.016;2023-05-10T09:26:48;16.50;99.90
44775;DHT22;31340;51.402;0.016;2023-05-10T09:29:16;16.60;99.90
44775;DHT22;31340;51.402;0.016;2023-05-10T09:31:51;16.70;99.90
44775;DHT22;31340;51.402;0.016;2023-05-10T09:34:32;16.80;99.90
44775;DHT22;31340;51.402;0.016;2023-05-10T09:37:01;16.90;99.90
44775;DHT22;31340;51.402;0.016;2023-05-10T09:39:34;17.00;99.90
44775;DHT22;31340;51.402;0.016;2023-05-10T09:42:07;17.10;99.90
44775;DHT22;31340;51.402;0.016;2023-05-10T09:44:35;17.10;99.90
44775;DHT22;31340;51.402;0.016;2023-05-10T09:47:03;17.10;99.90
44775;DHT22;31340;51.402;0.016;2023-05-10T09:49:31;17.20;99.90
44775;DHT22;31340;51.402;0.016;2023-05-10T09:52:06;17.30;99.70
44775;DHT22;31340;51.402;0.016;2023-05-10T09:54:34;17.40;99.40
44775;DHT22;31340;51.402;0.016;2023-05-10T09:57:02;17.50;99.60
44775;DHT22;31340;51.402;0.016;2023-05-10T09:59:33;17.50;99.00
44775;DHT22;31340;51.402;0.016;2023-05-10T10:02:02;17.60;98.70
44775;DHT22;31340;51.402;0.016;2023-05-10T10:04:30;17.70;98.80
44775;DHT22;31340;51.402;0.016;2023-05-10T10:07:04;17.80;98.40
44775;DHT22;31340;51.402;0.016;2023-05-10T10:09:33;18.00;98.20
44775;DHT22;31340;51.402;0.016;2023-05-10T10:12:02;18.10;98.30
44775;DHT22;31340;51.402;0.016;2023-05-10T10:14:31;18.20;98.10
44775;DHT22;31340;51.402;0.016;2023-05-10T10:17:00;18.30;97.60
44775;DHT22;31340;51.402;0.016;2023-05-10T10:19:33;18.50;97.10
44775;DHT22;31340;51.402;0.016;2023-05-10T10:22:03;18.70;97.10
44775;DHT22;31340;51.402;0.016;2023-05-10T10:24:31;18.90;97.00
44775;DHT22;31340;51.402;0.016;2023-05-10T10:27:09;19.10;96.60
44775;DHT22;31340;51.402;0.016;2023-05-10T10:30:13;19.40;95.80
44775;DHT22;31340;51.402;0.016;2023-05-10T10:35:54;19.90;94.70
44775;DHT22;31340;51.402;0.016;2023-05-10T10:38:22;20.20;95.00
44775;DHT22;31340;51.402;0.016;2023-05-10T10:41:49;20.40;94.90
44775;DHT22;31340;51.402;0.016;2023-05-10T10:49:27;21.30;92.60
44775;DHT22;31340;51.402;0.016;2023-05-10T10:57:20;21.80;90.70
44775;DHT22;31340;51.402;0.016;2023-05-10T10:59:49;22.00;90.90
44775;DHT22;31340;51.402;0.016;2023-05-10T11:02:33;22.20;90.00
44775;DHT22;31340;51.402;0.016;2023-05-10T11:05:24;22.40;88.00
44775;DHT22;31340;51.402;0.016;2023-05-10T11:10:22;22.50;89.30
44775;DHT22;31340;51.402;0.016;2023-05-10T11:13:04;22.60;87.50
44775;DHT22;31340;51.402;0.016;2023-05-10T11:18:18;23.10;85.90
44775;DHT22;31340;51.402;0.016;2023-05-10T11:23:31;23.60;83.60
44775;DHT22;31340;51.402;0.016;2023-05-10T11:26:00;23.80;81.60
44775;DHT22;31340;51.402;0.016;2023-05-10T11:28:28;23.90;79.80
44775;DHT22;31340;51.402;0.016;2023-05-10T11:30:56;24.00;78.30
44775;DHT22;31340;51.402;0.016;2023-05-10T11:33:24;24.20;76.90
44775;DHT22;31340;51.402;0.016;2023-05-10T11:35:51;24.20;75.40
44775;DHT22;31340;51.402;0.016;2023-05-10T11:38:19;24.30;76.00
44775;DHT22;31340;51.402;0.016;2023-05-10T11:40:51;24.30;75.70
44775;DHT22;31340;51.402;0.016;2023-05-10T11:43:19;24.40;73.80
44775;DHT22;31340;51.402;0.016;2023-05-10T11:45:50;24.50;74.00
44775;DHT22;31340;51.402;0.016;2023-05-10T11:48:18;24.60;73.10
44775;DHT22;31340;51.402;0.016;2023-05-10T11:50:50;24.80;71.30
44775;DHT22;31340;51.402;0.016;2023-05-10T11:53:19;25.00;71.40
44775;DHT22;31340;51.402;0.016;2023-05-10T11:55:48;25.10;72.20
44775;DHT22;31340;51.402;0.016;2023-05-10T11:58:15;25.30;72.70
44775;DHT22;31340;51.402;0.016;2023-05-10T12:00:45;25.50;71.30
44775;DHT22;31340;51.402;0.016;2023-05-10T12:03:13;25.70;67.90
44775;DHT22;31340;51.402;0.016;2023-05-10T12:05:41;25.80;65.90
44775;DHT22;31340;51.402;0.016;2023-05-10T12:08:19;25.90;65.20
44775;DHT22;31340;51.402;0.016;2023-05-10T12:10:48;26.00;62.90
44775;DHT22;31340;51.402;0.016;2023-05-10T12:13:16;26.10;62.50
44775;DHT22;31340;51.402;0.016;2023-05-10T12:15:44;26.30;60.30
44775;DHT22;31340;51.402;0.016;2023-05-10T12:18:23;26.40;60.30
44775;DHT22;31340;51.402;0.016;2023-05-10T12:20:54;26.50;59.20
44775;DHT22;31340;51.402;0.016;2023-05-10T12:23:30;26.60;57.90
44775;DHT22;31340;51.402;0.016;2023-05-10T12:26:04;26.60;57.20
44775;DHT22;31340;51.402;0.016;2023-05-10T12:28:32;26.60;56.80
44775;DHT22;31340;51.402;0.016;2023-05-10T12:31:01;26.70;56.40
44775;DHT22;31340;51.402;0.016;2023-05-10T12:33:43;26.60;55.10
44775;DHT22;31340;51.402;0.016;2023-05-10T12:36:12;26.50;54.90
44775;DHT22;31340;51.402;0.016;2023-05-10T12:38:44;26.40;55.30
44775;DHT22;31340;51.402;0.016;2023-05-10T12:41:16;26.20;55.20
44775;DHT22;31340;51.402;0.016;2023-05-10T12:43:45;26.00;56.00
44775;DHT22;31340;51.402;0.016;2023-05-10T12:46:16;25.70;56.00
44775;DHT22;31340;51.402;0.016;2023-05-10T12:48:45;25.60;56.60
44775;DHT22;31340;51.402;0.016;2023-05-10T12:51:14;25.40;56.90
44775;DHT22;31340;51.402;0.016;2023-05-10T12:53:44;25.30;57.70
44775;DHT22;31340;51.402;0.016;2023-05-10T12:56:15;25.20;57.40
44775;DHT22;31340;51.402;0.016;2023-05-10T12:58:43;25.00;57.80
44775;DHT22;31340;51.402;0.016;2023-05-10T13:01:15;24.90;58.40
44775;DHT22;31340;51.402;0.016;2023-05-10T13:03:42;24.80;59.20
44775;DHT22;31340;51.402;0.016;2023-05-10T13:06:10;24.80;58.50
44775;DHT22;31340;51.402;0.016;2023-05-10T13:08:38;24.60;57.70
44775;DHT22;31340;51.402;0.016;2023-05-10T13:11:05;24.50;57.50
44775;DHT22;31340;51.402;0.016;2023-05-10T13:13:33;24.30;57.90
44775;DHT22;31340;51.402;0.016;2023-05-10T13:16:00;24.10;58.50
44775;DHT22;31340;51.402;0.016;2023-05-10T13:18:28;24.00;59.10
44775;DHT22;31340;51.402;0.016;2023-05-10T13:20:55;23.90;59.20
44775;DHT22;31340;51.402;0.016;2023-05-10T13:23:23;23.70;59.90
44775;DHT22;31340;51.402;0.016;2023-05-10T13:25:50;23.60;61.50
44775;DHT22;31340;51.402;0.016;2023-05-10T13:28:18;23.50;61.60
44775;DHT22;31340;51.402;0.016;2023-05-10T13:30:47;23.40;61.30
44775;DHT22;31340;51.402;0.016;2023-05-10T13:33:14;23.40;62.10
44775;DHT22;31340;51.402;0.016;2023-05-10T13:35:43;23.40;62.40
44775;DHT22;31340;51.402;0.016;2023-05-10T13:38:10;23.50;63.30
44775;DHT22;31340;51.402;0.016;2023-05-10T13:40:38;23.60;63.50
44775;DHT22;31340;51.402;0.016;2023-05-10T13:43:05;23.60;63.30
44775;DHT22;31340;51.402;0.016;2023-05-10T13:45:33;23.60;63.00
44775;DHT22;31340;51.402;0.016;2023-05-10T13:48:00;23.70;63.70
44775;DHT22;31340;51.402;0.016;2023-05-10T13:50:28;23.80;62.20
44775;DHT22;31340;51.402;0.016;2023-05-10T13:52:55;23.80;61.00
44775;DHT22;31340;51.402;0.016;2023-05-10T13:55:23;23.90;61.90
44775;DHT22;31340;51.402;0.016;2023-05-10T13:57:51;23.90;60.70
44775;DHT22;31340;51.402;0.016;2023-05-10T14:00:19;24.00;60.80
44775;DHT22;31340;51.402;0.016;2023-05-10T14:02:47;24.00;60.60
44775;DHT22;31340;51.402;0.016;2023-05-10T14:05:15;23.90;61.40
44775;DHT22;31340;51.402;0.016;2023-05-10T14:07:45;23.80;62.20
44775;DHT22;31340;51.402;0.016;2023-05-10T14:10:12;23.70;63.00
44775;DHT22;31340;51.402;0.016;2023-05-10T14:12:40;23.50;63.70
44775;DHT22;31340;51.402;0.016;2023-05-10T14:15:08;23.30;64.40
44775;DHT22;31340;51.402;0.016;2023-05-10T14:17:38;23.20;65.60
44775;DHT22;31340;51.402;0.016;2023-05-10T14:20:06;23.00;67.00
44775;DHT22;31340;51.402;0.016;2023-05-10T14:22:35;22.70;67.70
44775;DHT22;31340;51.402;0.016;2023-05-10T14:25:02;22.50;71.00
44775;DHT22;31340;51.402;0.016;2023-05-10T14:27:31;22.30;72.60
44775;DHT22;31340;51.402;0.016;2023-05-10T14:29:59;22.10;74.40
44775;DHT22;31340;51.402;0.016;2023-05-10T14:32:27;21.90;74.80
44775;DHT22;31340;51.402;0.016;2023-05-10T14:34:55;21.80;75.80
44775;DHT22;31340;51.402;0.016;2023-05-10T14:37:24;21.60;76.90
44775;DHT22;31340;51.402;0.016;2023-05-10T14:39:52;21.50;79.70
44775;DHT22;31340;51.402;0.016;2023-05-10T14:42:19;21.40;80.50
44775;DHT22;31340;51.402;0.016;2023-05-10T14:44:47;21.40;80.20
44775;DHT22;31340;51.402;0.016;2023-05-10T14:47:15;21.50;81.20
44775;DHT22;31340;51.402;0.016;2023-05-10T14:49:43;21.60;83.40
44775;DHT22;31340;51.402;0.016;2023-05-10T14:52:11;21.80;83.10
44775;DHT22;31340;51.402;0.016;2023-05-10T14:54:39;22.10;83.80
44775;DHT22;31340;51.402;0.016;2023-05-10T14:57:08;22.40;83.70
44775;DHT22;31340;51.402;0.016;2023-05-10T14:59:36;22.80;78.60
44775;DHT22;31340;51.402;0.016;2023-05-10T15:02:04;23.20;76.90
44775;DHT22;31340;51.402;0.016;2023-05-10T15:04:32;23.70;74.90
44775;DHT22;31340;51.402;0.016;2023-05-10T15:07:00;24.10;72.60
44775;DHT22;31340;51.402;0.016;2023-05-10T15:09:28;24.50;70.30
44775;DHT22;31340;51.402;0.016;2023-05-10T15:11:55;24.90;67.20
44775;DHT22;31340;51.402;0.016;2023-05-10T15:14:23;25.20;65.70
44775;DHT22;31340;51.402;0.016;2023-05-10T15:16:51;25.50;67.10
44775;DHT22;31340;51.402;0.016;2023-05-10T15:19:19;25.90;64.00
44775;DHT22;31340;51.402;0.016;2023-05-10T15:21:47;26.30;61.00
44775;DHT22;31340;51.402;0.016;2023-05-10T15:24:15;26.50;59.60
44775;DHT22;31340;51.402;0.016;2023-05-10T15:26:43;26.80;58.20
44775;DHT22;31340;51.402;0.016;2023-05-10T15:29:11;27.10;57.40
44775;DHT22;31340;51.402;0.016;2023-05-10T15:31:39;27.30;56.50
44775;DHT22;31340;51.402;0.016;2023-05-10T15:34:07;27.40;55.60
44775;DHT22;31340;51.402;0.016;2023-05-10T15:36:34;27.30;56.30
44775;DHT22;31340;51.402;0.016;2023-05-10T15:39:02;27.20;55.70
44775;DHT22;31340;51.402;0.016;2023-05-10T15:41:31;27.20;54.90
44775;DHT22;31340;51.402;0.016;2023-05-10T15:43:58;27.10;54.40
44775;DHT22;31340;51.402;0.016;2023-05-10T15:46:29;27.10;56.10
44775;DHT22;31340;51.402;0.016;2023-05-10T15:48:57;27.10;58.20
44775;DHT22;31340;51.402;0.016;2023-05-10T15:51:28;27.10;58.50
44775;DHT22;31340;51.402;0.016;2023-05-10T15:53:55;27.20;58.30
44775;DHT22;31340;51.402;0.016;2023-05-10T15:56:34;27.30;59.80
44775;DHT22;31340;51.402;0.016;2023-05-10T15:59:02;27.40;58.30
44775;DHT22;31340;51.402;0.016;2023-05-10T16:01:30;27.40;57.50
44775;DHT22;31340;51.402;0.016;2023-05-10T16:03:59;27.40;57.30
44775;DHT22;31340;51.402;0.016;2023-05-10T16:06:27;27.30;57.50
44775;DHT22;31340;51.402;0.016;2023-05-10T16:08:54;27.20;57.00
44775;DHT22;31340;51.402;0.016;2023-05-10T16:11:22;27.20;56.80
44775;DHT22;31340;51.402;0.016;2023-05-10T16:13:50;27.00;56.50
44775;DHT22;31340;51.402;0.016;2023-05-10T16:16:17;26.70;57.20